sensor_id;sensor_type;location;lat;lon;timestamp;temperature;humidity
17728;DHT22;8984;49.268;12.302;2024-03-08T00:00:20;1.80;99.90
17728;DHT22;8984;49.268;12.302;2024-03-08T00:02:53;1.80;99.90
17728;DHT22;8984;49.268;12.302;2024-03-08T00:05:21;1.80;99.90
17728;DHT22;8984;49.268;12.302;2024-03-08T00:07:57;1.80;99.90
17728;DHT22;8984;49.268;12.302;2024-03-08T00:10:27;1.80;99.90
17728;DHT22;8984;49.268;12.302;2024-03-08T00:13:06;1.80;99.90
17728;DHT22;8984;49.268;12.302;2024-03-08T00:15:34;1.80;99.90
17728;DHT22;8984;49.268;12.302;2024-03-08T00:18:10;1.70;99.90
17728;DHT22;8984;49.268;12.302;2024-03-08T00:20:39;1.70;99.90
17728;DHT22;8984;49.268;12.302;2024-03-08T00:23:09;1.70;99.90
17728;DHT22;8984;49.268;12.302;2024-03-08T00:26:03;1.60;99.90
17728;DHT22;8984;49.268;12.302;2024-03-08T00:28:32;1.60;99.90
17728;DHT22;8984;49.268;12.302;2024-03-08T00:31:09;1.60;99.90
17728;DHT22;8984;49.268;12.302;2024-03-08T00:33:51;1.60;99.90
17728;DHT22;8984;49.268;12.302;2024-03-08T00:36:24;1.60;99.90
17728;DHT22;8984;49.268;12.302;2024-03-08T00:38:54;1.60;99.90
17728;DHT22;8984;49.268;12.302;2024-03-08T00:41:23;1.60;99.90
17728;DHT22;8984;49.268;12.302;2024-03-08T00:43:57;1.50;99.90
17728;DHT22;8984;49.268;12.302;2024-03-08T00:46:26;1.50;99.90
17728;DHT22;8984;49.268;12.302;2024-03-08T00:48:59;1.50;99.90
17728;DHT22;8984;49.268;12.302;2024-03-08T00:51:27;1.50;99.90
17728;DHT22;8984;49.268;12.302;2024-03-08T00:53:59;1.50;99.90
17728;DHT22;8984;49.268;12.302;2024-03-08T00:56:31;1.50;99.90
17728;DHT22;8984;49.268;12.302;2024-03-08T00:59:05;1.50;99.90
17728;DHT22;8984;49.268;12.302;2024-03-08T01:01:36;1.40;99.90
17728;DHT22;8984;49.268;12.302;2024-03-08T01:04:08;1.40;99.90
17728;DHT22;8984;49.268;12.302;2024-03-08T01:06:44;1.40;99.90
17728;DHT22;8984;49.268;12.302;2024-03-08T01:09:13;1.40;99.90
17728;DHT22;8984;49.268;12.302;2024-03-08T01:11:43;1.30;99.90
17728;DHT22;8984;49.268;12.302;2024-03-08T01:14:11;1.30;99.90
17728;DHT22;8984;49.268;12.302;2024-03-08T01:16:45;1.30;99.90
17728;DHT22;8984;49.268;12.302;2024-03-08T01:19:19;1.30;99.90
17728;DHT22;8984;49.268;12.302;2024-03-08T01:21:51;1.20;99.90
17728;DHT22;8984;49.268;12.302;2024-03-08T01:24:19;1.30;99.90
17728;DHT22;8984;49.268;12.302;2024-03-08T01:26:47;1.30;99.90
17728;DHT22;8984;49.268;12.302;2024-03-08T01:29:17;1.30;99.90
17728;DHT22;8984;49.268;12.302;2024-03-08T01:31:47;1.30;99.90
17728;DHT22;8984;49.268;12.302;2024-03-08T01:34:22;1.30;99.90
17728;DHT22;8984;49.268;12.302;2024-03-08T01:36:52;1.30;99.90
17728;DHT22;8984;49.268;12.302;2024-03-08T01:39:19;1.30;99.90
17728;DHT22;8984;49.268;12.302;2024-03-08T01:41:48;1.30;99.90
17728;DHT22;8984;49.268;12.302;2024-03-08T01:44:16;1.30;99.90
17728;DHT22;8984;49.268;12.302;2024-03-08T01:46:47;1.30;99.90
17728;DHT22;8984;49.268;12.302;2024-03-08T01:49:21;1.40;99.90
17728;DHT22;8984;49.268;12.302;2024-03-08T01:51:51;1.30;99.90
17728;DHT22;8984;49.268;12.302;2024-03-08T01:54:20;1.30;99.90
17728;DHT22;8984;49.268;12.302;2024-03-08T01:56:56;1.20;99.90
17728;DHT22;8984;49.268;12.302;2024-03-08T01:59:25;1.20;99.90
17728;DHT22;8984;49.268;12.302;2024-03-08T02:02:00;1.20;99.90
17728;DHT22;8984;49.268;12.302;2024-03-08T02:04:31;1.20;99.90
17728;DHT22;8984;49.268;12.302;2024-03-08T02:07:02;1.10;99.90
17728;DHT22;8984;49.268;12.302;2024-03-08T02:09:31;1.10;99.90
17728;DHT22;8984;49.268;12.302;2024-03-08T02:12:02;1.10;99.90
17728;DHT22;8984;49.268;12.302;2024-03-08T02:14:51;1.10;99.90
17728;DHT22;8984;49.268;12.302;2024-03-08T02:17:32;1.10;99.90
17728;DHT22;8984;49.268;12.302;2024-03-08T02:20:19;1.10;99.90
17728;DHT22;8984;49.268;12.302;2024-03-08T02:23:03;1.10;99.90
17728;DHT22;8984;49.268;12.302;2024-03-08T02:25:31;1.00;99.90
17728;DHT22;8984;49.268;12.302;2024-03-08T02:28:00;1.10;99.90
17728;DHT22;8984;49.268;12.302;2024-03-08T02:30:41;1.10;99.90
17728;DHT22;8984;49.268;12.302;2024-03-08T02:33:34;1.00;99.90
17728;DHT22;8984;49.268;12.302;2024-03-08T02:36:03;1.00;99.90
17728;DHT22;8984;49.268;12.302;2024-03-08T02:38:49;1.00;99.90
17728;DHT22;8984;49.268;12.302;2024-03-08T02:41:18;1.00;99.90
17728;DHT22;8984;49.268;12.302;2024-03-08T02:44:01;1.00;99.90
17728;DHT22;8984;49.268;12.302;2024-03-08T02:46:30;1.00;99.90
17728;DHT22;8984;49.268;12.302;2024-03-08T02:49:00;1.00;99.90
17728;DHT22;8984;49.268;12.302;2024-03-08T02:51:43;0.90;99.90
17728;DHT22;8984;49.268;12.302;2024-03-08T02:54:21;0.90;99.90
17728;DHT22;8984;49.268;12.302;2024-03-08T02:56:57;0.90;99.90
17728;DHT22;8984;49.268;12.302;2024-03-08T02:59:29;0.90;99.90
17728;DHT22;8984;49.268;12.302;2024-03-08T03:01:59;0.90;99.90
17728;DHT22;8984;49.268;12.302;2024-03-08T03:04:29;0.90;99.90
17728;DHT22;8984;49.268;12.302;2024-03-08T03:06:59;0.90;99.90
17728;DHT22;8984;49.268;12.302;2024-03-08T03:12:37;0.90;99.90
17728;DHT22;8984;49.268;12.302;2024-03-08T03:15:05;0.80;99.90
17728;DHT22;8984;49.268;12.302;2024-03-08T03:17:32;0.80;99.90
17728;DHT22;8984;49.268;12.302;2024-03-08T03:19:59;0.80;99.90
17728;DHT22;8984;49.268;12.302;2024-03-08T03:22:28;0.80;99.90
17728;DHT22;8984;49.268;12.302;2024-03-08T03:24:55;0.80;99.90
17728;DHT22;8984;49.268;12.302;2024-03-08T03:27:23;0.80;99.90
17728;DHT22;8984;49.268;12.302;2024-03-08T03:29:51;0.80;99.90
17728;DHT22;8984;49.268;12.302;2024-03-08T03:32:18;0.70;99.90
17728;DHT22;8984;49.268;12.302;2024-03-08T03:34:45;0.70;99.90
17728;DHT22;8984;49.268;12.302;2024-03-08T03:37:12;0.70;99.90
17728;DHT22;8984;49.268;12.302;2024-03-08T03:39:39;0.70;99.90
17728;DHT22;8984;49.268;12.302;2024-03-08T03:42:14;0.60;99.90
17728;DHT22;8984;49.268;12.302;2024-03-08T03:44:41;0.60;99.90
17728;DHT22;8984;49.268;12.302;2024-03-08T03:47:10;0.60;99.90
17728;DHT22;8984;49.268;12.302;2024-03-08T03:49:37;0.60;99.90
17728;DHT22;8984;49.268;12.302;2024-03-08T03:52:05;0.60;99.90
17728;DHT22;8984;49.268;12.302;2024-03-08T03:54:32;0.70;99.90
17728;DHT22;8984;49.268;12.302;2024-03-08T03:56:59;0.70;99.90
17728;DHT22;8984;49.268;12.302;2024-03-08T03:59:26;0.70;99.90
17728;DHT22;8984;49.268;12.302;2024-03-08T04:01:53;0.70;99.90
17728;DHT22;8984;49.268;12.302;2024-03-08T04:04:22;0.80;99.90
17728;DHT22;8984;49.268;12.302;2024-03-08T04:06:50;0.80;99.90
17728;DHT22;8984;49.268;12.302;2024-03-08T04:09:17;0.80;99.90
17728;DHT22;8984;49.268;12.302;2024-03-08T04:11:44;0.90;99.90
17728;DHT22;8984;49.268;12.302;2024-03-08T04:14:11;0.90;99.90
17728;DHT22;8984;49.268;12.302;2024-03-08T04:16:38;0.80;99.90
17728;DHT22;8984;49.268;12.302;2024-03-08T04:19:05;0.80;99.90
17728;DHT22;8984;49.268;12.302;2024-03-08T04:21:34;0.90;99.90
17728;DHT22;8984;49.268;12.302;2024-03-08T04:24:00;0.90;99.90
17728;DHT22;8984;49.268;12.302;2024-03-08T04:26:27;0.90;99.90
17728;DHT22;8984;49.268;12.302;2024-03-08T04:28:54;0.90;99.90
17728;DHT22;8984;49.268;12.302;2024-03-08T04:31:21;0.80;99.90
17728;DHT22;8984;49.268;12.302;2024-03-08T04:33:48;0.90;99.90
17728;DHT22;8984;49.268;12.302;2024-03-08T04:36:14;0.90;99.90
17728;DHT22;8984;49.268;12.302;2024-03-08T04:38:43;0.90;99.90
17728;DHT22;8984;49.268;12.302;2024-03-08T04:41:11;0.80;99.90
17728;DHT22;8984;49.268;12.302;2024-03-08T04:43:38;0.80;99.90
17728;DHT22;8984;49.268;12.302;2024-03-08T04:46:05;0.80;99.90
17728;DHT22;8984;49.268;12.302;2024-03-08T04:48:32;0.80;99.90
17728;DHT22;8984;49.268;12.302;2024-03-08T04:51:00;0.70;99.90
17728;DHT22;8984;49.268;12.302;2024-03-08T04:53:26;0.70;99.90
17728;DHT22;8984;49.268;12.302;2024-03-08T04:55:55;0.80;99.90
17728;DHT22;8984;49.268;12.302;2024-03-08T04:58:23;0.80;99.90
17728;DHT22;8984;49.268;12.302;2024-03-08T05:00:50;0.70;99.90
17728;DHT22;8984;49.268;12.302;2024-03-08T05:03:17;0.70;99.90
17728;DHT22;8984;49.268;12.302;2024-03-08T05:05:44;0.70;99.90
17728;DHT22;8984;49.268;12.302;2024-03-08T05:08:10;0.60;99.90
17728;DHT22;8984;49.268;12.302;2024-03-08T05:10:37;0.60;99.90
17728;DHT22;8984;49.268;12.302;2024-03-08T05:13:05;0.60;99.90
17728;DHT22;8984;49.268;12.302;2024-03-08T05:15:32;0.60;99.90
17728;DHT22;8984;49.268;12.302;2024-03-08T05:18:00;0.70;99.90
17728;DHT22;8984;49.268;12.302;2024-03-08T05:20:27;0.50;99.90
17728;DHT22;8984;49.268;12.302;2024-03-08T05:22:54;0.50;99.90
17728;DHT22;8984;49.268;12.302;2024-03-08T05:25:20;0.50;99.90
17728;DHT22;8984;49.268;12.302;2024-03-08T05:27:47;0.50;99.90
17728;DHT22;8984;49.268;12.302;2024-03-08T05:30:16;0.60;99.90
17728;DHT22;8984;49.268;12.302;2024-03-08T05:32:43;0.60;99.90
17728;DHT22;8984;49.268;12.302;2024-03-08T05:35:11;0.50;99.90
17728;DHT22;8984;49.268;12.302;2024-03-08T05:37:38;0.50;99.90
17728;DHT22;8984;49.268;12.302;2024-03-08T05:40:05;0.50;99.90
17728;DHT22;8984;49.268;12.302;2024-03-08T05:42:35;0.50;99.90
17728;DHT22;8984;49.268;12.302;2024-03-08T05:45:03;0.50;99.90
17728;DHT22;8984;49.268;12.302;2024-03-08T05:47:31;0.50;99.90
17728;DHT22;8984;49.268;12.302;2024-03-08T05:49:58;0.60;99.90
17728;DHT22;8984;49.268;12.302;2024-03-08T05:52:25;0.50;99.90
17728;DHT22;8984;49.268;12.302;2024-03-08T05:54:52;0.50;99.90
17728;DHT22;8984;49.268;12.302;2024-03-08T05:57:19;0.50;99.90
17728;DHT22;8984;49.268;12.302;2024-03-08T05:59:48;0.50;99.90
17728;DHT22;8984;49.268;12.302;2024-03-08T06:02:14;0.50;99.90
17728;DHT22;8984;49.268;12.302;2024-03-08T06:04:46;0.60;99.90
17728;DHT22;8984;49.268;12.302;2024-03-08T06:07:13;0.70;99.90
17728;DHT22;8984;49.268;12.302;2024-03-08T06:09:40;1.00;99.90
17728;DHT22;8984;49.268;12.302;2024-03-08T06:12:10;1.30;99.90
17728;DHT22;8984;49.268;12.302;2024-03-08T06:14:37;1.70;99.90
17728;DHT22;8984;49.268;12.302;2024-03-08T06:17:04;2.00;99.90
17728;DHT22;8984;49.268;12.302;2024-03-08T06:19:32;2.30;99.90
17728;DHT22;8984;49.268;12.302;2024-03-08T06:22:01;2.60;99.90
17728;DHT22;8984;49.268;12.302;2024-03-08T06:24:31;2.80;99.90
17728;DHT22;8984;49.268;12.302;2024-03-08T06:26:57;3.00;99.90
17728;DHT22;8984;49.268;12.302;2024-03-08T06:29:24;3.10;99.90
17728;DHT22;8984;49.268;12.302;2024-03-08T06:31:51;3.20;99.90
17728;DHT22;8984;49.268;12.302;2024-03-08T06:34:19;3.30;99.90
17728;DHT22;8984;49.268;12.302;2024-03-08T06:36:45;3.40;99.90
17728;DHT22;8984;49.268;12.302;2024-03-08T06:39:14;3.50;99.90
17728;DHT22;8984;49.268;12.302;2024-03-08T06:41:40;3.60;99.90
17728;DHT22;8984;49.268;12.302;2024-03-08T06:44:10;3.60;99.90
17728;DHT22;8984;49.268;12.302;2024-03-08T06:46:36;3.70;99.90
17728;DHT22;8984;49.268;12.302;2024-03-08T06:49:03;3.70;99.90
17728;DHT22;8984;49.268;12.302;2024-03-08T06:51:30;3.80;99.90
17728;DHT22;8984;49.268;12.302;2024-03-08T06:53:57;3.90;99.90
17728;DHT22;8984;49.268;12.302;2024-03-08T06:56:26;4.00;99.90
17728;DHT22;8984;49.268;12.302;2024-03-08T06:58:52;4.10;99.90
17728;DHT22;8984;49.268;12.302;2024-03-08T07:01:20;4.20;99.90
17728;DHT22;8984;49.268;12.302;2024-03-08T07:03:47;4.40;99.90
17728;DHT22;8984;49.268;12.302;2024-03-08T07:06:14;4.40;99.90
17728;DHT22;8984;49.268;12.302;2024-03-08T07:08:44;4.50;99.90
17728;DHT22;8984;49.268;12.302;2024-03-08T07:11:11;4.60;99.90
17728;DHT22;8984;49.268;12.302;2024-03-08T07:13:45;4.60;99.90
17728;DHT22;8984;49.268;12.302;2024-03-08T07:16:11;4.70;99.90
17728;DHT22;8984;49.268;12.302;2024-03-08T07:18:38;4.70;99.90
17728;DHT22;8984;49.268;12.302;2024-03-08T07:21:08;4.80;99.90
17728;DHT22;8984;49.268;12.302;2024-03-08T07:23:35;4.90;99.90
17728;DHT22;8984;49.268;12.302;2024-03-08T07:26:28;5.00;99.90
17728;DHT22;8984;49.268;12.302;2024-03-08T07:28:57;5.00;99.90
17728;DHT22;8984;49.268;12.302;2024-03-08T07:31:26;5.10;99.90
17728;DHT22;8984;49.268;12.302;2024-03-08T07:34:03;5.20;99.90
17728;DHT22;8984;49.268;12.302;2024-03-08T07:36:33;5.40;99.90
17728;DHT22;8984;49.268;12.302;2024-03-08T07:39:00;5.50;99.90
17728;DHT22;8984;49.268;12.302;2024-03-08T07:41:27;5.70;99.90
17728;DHT22;8984;49.268;12.302;2024-03-08T07:43:54;5.90;99.90
17728;DHT22;8984;49.268;12.302;2024-03-08T07:46:22;6.10;99.90
17728;DHT22;8984;49.268;12.302;2024-03-08T07:48:49;6.20;99.90
17728;DHT22;8984;49.268;12.302;2024-03-08T07:51:17;6.20;99.90
17728;DHT22;8984;49.268;12.302;2024-03-08T07:53:44;6.40;99.90
17728;DHT22;8984;49.268;12.302;2024-03-08T07:56:11;6.50;99.90
17728;DHT22;8984;49.268;12.302;2024-03-08T07:58:39;6.60;99.90
17728;DHT22;8984;49.268;12.302;2024-03-08T08:01:07;6.70;99.90
17728;DHT22;8984;49.268;12.302;2024-03-08T08:03:35;6.80;99.90
17728;DHT22;8984;49.268;12.302;2024-03-08T08:06:04;7.00;99.90
17728;DHT22;8984;49.268;12.302;2024-03-08T08:08:30;7.10;99.90
17728;DHT22;8984;49.268;12.302;2024-03-08T08:10:57;7.20;99.90
17728;DHT22;8984;49.268;12.302;2024-03-08T08:13:25;7.20;99.90
17728;DHT22;8984;49.268;12.302;2024-03-08T08:15:53;7.40;99.90
17728;DHT22;8984;49.268;12.302;2024-03-08T08:18:20;7.50;99.90
17728;DHT22;8984;49.268;12.302;2024-03-08T08:20:51;7.50;99.90
17728;DHT22;8984;49.268;12.302;2024-03-08T08:23:18;7.60;99.90
17728;DHT22;8984;49.268;12.302;2024-03-08T08:25:46;7.60;99.90
17728;DHT22;8984;49.268;12.302;2024-03-08T08:28:15;7.70;99.90
17728;DHT22;8984;49.268;12.302;2024-03-08T08:30:43;7.60;99.90
17728;DHT22;8984;49.268;12.302;2024-03-08T08:33:10;7.60;99.90
17728;DHT22;8984;49.268;12.302;2024-03-08T08:35:36;7.70;99.90
17728;DHT22;8984;49.268;12.302;2024-03-08T08:38:06;8.00;99.90
17728;DHT22;8984;49.268;12.302;2024-03-08T08:40:34;7.90;99.90
17728;DHT22;8984;49.268;12.302;2024-03-08T08:43:01;7.90;99.90
17728;DHT22;8984;49.268;12.302;2024-03-08T08:45:30;8.00;99.90
17728;DHT22;8984;49.268;12.302;2024-03-08T08:47:57;8.10;99.90
17728;DHT22;8984;49.268;12.302;2024-03-08T08:50:25;8.10;99.90
17728;DHT22;8984;49.268;12.302;2024-03-08T08:52:53;8.10;99.90
17728;DHT22;8984;49.268;12.302;2024-03-08T08:55:22;8.10;99.90
17728;DHT22;8984;49.268;12.302;2024-03-08T08:57:51;7.90;99.90
17728;DHT22;8984;49.268;12.302;2024-03-08T09:00:18;7.90;99.90
17728;DHT22;8984;49.268;12.302;2024-03-08T09:02:46;7.90;99.90
17728;DHT22;8984;49.268;12.302;2024-03-08T09:05:13;8.10;99.90
17728;DHT22;8984;49.268;12.302;2024-03-08T09:07:42;8.10;99.90
17728;DHT22;8984;49.268;12.302;2024-03-08T09:10:10;8.20;99.90
17728;DHT22;8984;49.268;12.302;2024-03-08T09:12:39;8.20;99.90
17728;DHT22;8984;49.268;12.302;2024-03-08T09:15:07;8.30;99.90
17728;DHT22;8984;49.268;12.302;2024-03-08T09:17:36;8.30;99.90
17728;DHT22;8984;49.268;12.302;2024-03-08T09:20:06;8.50;99.90
17728;DHT22;8984;49.268;12.302;2024-03-08T09:22:33;8.50;99.90
17728;DHT22;8984;49.268;12.302;2024-03-08T09:25:00;8.40;99.90
17728;DHT22;8984;49.268;12.302;2024-03-08T09:27:27;8.60;99.90
17728;DHT22;8984;49.268;12.302;2024-03-08T09:29:55;8.70;99.90
17728;DHT22;8984;49.268;12.302;2024-03-08T09:32:21;8.70;99.90
17728;DHT22;8984;49.268;12.302;2024-03-08T09:34:48;8.90;99.90
17728;DHT22;8984;49.268;12.302;2024-03-08T09:37:15;9.20;99.90
17728;DHT22;8984;49.268;12.302;2024-03-08T09:39:43;9.30;99.90
17728;DHT22;8984;49.268;12.302;2024-03-08T09:42:10;9.30;99.90
17728;DHT22;8984;49.268;12.302;2024-03-08T09:44:43;9.40;99.90
17728;DHT22;8984;49.268;12.302;2024-03-08T09:47:13;9.50;99.90
17728;DHT22;8984;49.268;12.302;2024-03-08T09:49:40;9.60;99.90
17728;DHT22;8984;49.268;12.302;2024-03-08T09:52:09;9.70;99.90
17728;DHT22;8984;49.268;12.302;2024-03-08T09:54:38;9.60;99.90
17728;DHT22;8984;49.268;12.302;2024-03-08T09:57:06;9.80;99.90
17728;DHT22;8984;49.268;12.302;2024-03-08T09:59:34;9.50;99.90
17728;DHT22;8984;49.268;12.302;2024-03-08T10:02:15;9.40;99.90
17728;DHT22;8984;49.268;12.302;2024-03-08T10:04:43;9.40;99.90
17728;DHT22;8984;49.268;12.302;2024-03-08T10:07:12;9.30;99.90
17728;DHT22;8984;49.268;12.302;2024-03-08T10:09:39;9.20;99.90
17728;DHT22;8984;49.268;12.302;2024-03-08T10:12:08;9.40;99.90
17728;DHT22;8984;49.268;12.302;2024-03-08T10:14:39;9.40;99.90
17728;DHT22;8984;49.268;12.302;2024-03-08T10:17:06;9.50;99.90
17728;DHT22;8984;49.268;12.302;2024-03-08T10:19:35;9.60;99.90
17728;DHT22;8984;49.268;12.302;2024-03-08T10:22:02;9.70;99.90
17728;DHT22;8984;49.268;12.302;2024-03-08T10:24:30;10.00;99.90
17728;DHT22;8984;49.268;12.302;2024-03-08T10:26:59;9.90;99.90
17728;DHT22;8984;49.268;12.302;2024-03-08T10:29:30;10.00;99.90
17728;DHT22;8984;49.268;12.302;2024-03-08T10:31:57;10.00;99.90
17728;DHT22;8984;49.268;12.302;2024-03-08T10:34:25;10.30;99.90
17728;DHT22;8984;49.268;12.302;2024-03-08T10:36:54;10.60;99.90
17728;DHT22;8984;49.268;12.302;2024-03-08T10:39:25;10.60;99.90
17728;DHT22;8984;49.268;12.302;2024-03-08T10:41:57;10.80;99.90
17728;DHT22;8984;49.268;12.302;2024-03-08T10:44:40;10.90;99.90
17728;DHT22;8984;49.268;12.302;2024-03-08T10:47:17;11.00;99.90
17728;DHT22;8984;49.268;12.302;2024-03-08T10:49:50;11.10;99.90
17728;DHT22;8984;49.268;12.302;2024-03-08T10:52:21;11.20;99.90
17728;DHT22;8984;49.268;12.302;2024-03-08T10:54:48;11.10;99.90
17728;DHT22;8984;49.268;12.302;2024-03-08T10:57:18;11.00;99.90
17728;DHT22;8984;49.268;12.302;2024-03-08T10:59:47;11.40;99.90
17728;DHT22;8984;49.268;12.302;2024-03-08T11:02:16;11.30;99.90
17728;DHT22;8984;49.268;12.302;2024-03-08T11:04:48;11.40;99.90
17728;DHT22;8984;49.268;12.302;2024-03-08T11:07:15;11.50;99.90
17728;DHT22;8984;49.268;12.302;2024-03-08T11:09:47;11.50;99.90
17728;DHT22;8984;49.268;12.302;2024-03-08T11:12:22;11.70;99.90
17728;DHT22;8984;49.268;12.302;2024-03-08T11:14:51;11.60;99.90
17728;DHT22;8984;49.268;12.302;2024-03-08T11:17:21;11.80;99.90
17728;DHT22;8984;49.268;12.302;2024-03-08T11:19:48;11.40;99.90
17728;DHT22;8984;49.268;12.302;2024-03-08T11:22:28;11.50;99.90
17728;DHT22;8984;49.268;12.302;2024-03-08T11:25:01;11.40;99.90
17728;DHT22;8984;49.268;12.302;2024-03-08T11:27:29;11.60;99.90
17728;DHT22;8984;49.268;12.302;2024-03-08T11:30:00;11.70;99.90
17728;DHT22;8984;49.268;12.302;2024-03-08T11:32:35;12.10;99.90
17728;DHT22;8984;49.268;12.302;2024-03-08T11:35:06;11.90;99.90
17728;DHT22;8984;49.268;12.302;2024-03-08T11:37:36;11.80;99.90
17728;DHT22;8984;49.268;12.302;2024-03-08T11:40:12;11.80;99.90
17728;DHT22;8984;49.268;12.302;2024-03-08T11:42:44;12.00;99.90
17728;DHT22;8984;49.268;12.302;2024-03-08T11:45:13;12.20;99.90
17728;DHT22;8984;49.268;12.302;2024-03-08T11:47:42;12.30;99.90
17728;DHT22;8984;49.268;12.302;2024-03-08T11:50:12;12.50;99.90
17728;DHT22;8984;49.268;12.302;2024-03-08T11:52:38;12.70;99.90
17728;DHT22;8984;49.268;12.302;2024-03-08T11:55:07;12.90;99.90
17728;DHT22;8984;49.268;12.302;2024-03-08T11:57:34;12.90;99.90
17728;DHT22;8984;49.268;12.302;2024-03-08T12:00:03;12.80;99.90
17728;DHT22;8984;49.268;12.302;2024-03-08T12:02:32;12.90;99.90
17728;DHT22;8984;49.268;12.302;2024-03-08T12:05:02;12.90;99.90
17728;DHT22;8984;49.268;12.302;2024-03-08T12:07:29;13.00;99.90
17728;DHT22;8984;49.268;12.302;2024-03-08T12:10:23;13.10;99.90
17728;DHT22;8984;49.268;12.302;2024-03-08T12:12:52;13.20;99.90
17728;DHT22;8984;49.268;12.302;2024-03-08T12:15:20;12.90;99.90
17728;DHT22;8984;49.268;12.302;2024-03-08T12:17:48;12.50;99.90
17728;DHT22;8984;49.268;12.302;2024-03-08T12:20:16;12.50;99.90
17728;DHT22;8984;49.268;12.302;2024-03-08T12:22:44;12.70;99.90
17728;DHT22;8984;49.268;12.302;2024-03-08T12:25:12;12.70;99.90
17728;DHT22;8984;49.268;12.302;2024-03-08T12:27:41;12.80;99.90
17728;DHT22;8984;49.268;12.302;2024-03-08T12:30:19;12.80;99.90
17728;DHT22;8984;49.268;12.302;2024-03-08T12:32:50;12.50;99.90
17728;DHT22;8984;49.268;12.302;2024-03-08T12:35:19;12.90;99.90
17728;DHT22;8984;49.268;12.302;2024-03-08T12:37:48;13.20;99.90
17728;DHT22;8984;49.268;12.302;2024-03-08T12:40:17;13.40;99.90
17728;DHT22;8984;49.268;12.302;2024-03-08T12:42:45;13.50;99.90
17728;DHT22;8984;49.268;12.302;2024-03-08T12:45:14;13.70;99.90
17728;DHT22;8984;49.268;12.302;2024-03-08T12:47:41;13.70;99.90
17728;DHT22;8984;49.268;12.302;2024-03-08T12:50:09;13.70;99.90
17728;DHT22;8984;49.268;12.302;2024-03-08T12:52:36;13.70;99.90
17728;DHT22;8984;49.268;12.302;2024-03-08T12:55:04;12.90;99.90
17728;DHT22;8984;49.268;12.302;2024-03-08T12:57:33;13.30;99.90
17728;DHT22;8984;49.268;12.302;2024-03-08T13:00:02;13.40;99.90
17728;DHT22;8984;49.268;12.302;2024-03-08T13:02:30;13.60;99.90
17728;DHT22;8984;49.268;12.302;2024-03-08T13:04:57;13.60;99.90
17728;DHT22;8984;49.268;12.302;2024-03-08T13:07:25;13.80;99.90
17728;DHT22;8984;49.268;12.302;2024-03-08T13:09:52;13.60;99.90
17728;DHT22;8984;49.268;12.302;2024-03-08T13:12:20;13.60;99.90
17728;DHT22;8984;49.268;12.302;2024-03-08T13:14:46;13.50;99.90
17728;DHT22;8984;49.268;12.302;2024-03-08T13:17:15;13.00;99.90
17728;DHT22;8984;49.268;12.302;2024-03-08T13:19:43;12.80;99.90
17728;DHT22;8984;49.268;12.302;2024-03-08T13:22:10;12.50;99.90
17728;DHT22;8984;49.268;12.302;2024-03-08T13:24:38;12.50;99.90
17728;DHT22;8984;49.268;12.302;2024-03-08T13:27:07;12.50;99.90
17728;DHT22;8984;49.268;12.302;2024-03-08T13:29:45;12.60;99.90
17728;DHT22;8984;49.268;12.302;2024-03-08T13:32:14;12.90;99.90
17728;DHT22;8984;49.268;12.302;2024-03-08T13:34:42;12.70;99.90
17728;DHT22;8984;49.268;12.302;2024-03-08T13:37:09;12.90;99.90
17728;DHT22;8984;49.268;12.302;2024-03-08T13:39:37;12.70;99.90
17728;DHT22;8984;49.268;12.302;2024-03-08T13:42:09;12.80;99.90
17728;DHT22;8984;49.268;12.302;2024-03-08T13:44:39;12.90;99.90
17728;DHT22;8984;49.268;12.302;2024-03-08T13:47:06;12.90;99.90
17728;DHT22;8984;49.268;12.302;2024-03-08T13:49:34;13.00;99.90
17728;DHT22;8984;49.268;12.302;2024-03-08T13:52:02;13.00;99.90
17728;DHT22;8984;49.268;12.302;2024-03-08T13:54:29;13.00;99.90
17728;DHT22;8984;49.268;12.302;2024-03-08T13:56:57;13.00;99.90
17728;DHT22;8984;49.268;12.302;2024-03-08T13:59:24;13.00;99.90
17728;DHT22;8984;49.268;12.302;2024-03-08T14:01:55;13.00;99.90
17728;DHT22;8984;49.268;12.302;2024-03-08T14:04:22;12.90;99.90
17728;DHT22;8984;49.268;12.302;2024-03-08T14:06:51;12.90;99.90
17728;DHT22;8984;49.268;12.302;2024-03-08T14:09:22;13.00;99.90
17728;DHT22;8984;49.268;12.302;2024-03-08T14:11:50;13.00;99.90
17728;DHT22;8984;49.268;12.302;2024-03-08T14:14:19;13.00;99.90
17728;DHT22;8984;49.268;12.302;2024-03-08T14:16:46;12.80;99.90
17728;DHT22;8984;49.268;12.302;2024-03-08T14:19:13;12.70;99.90
17728;DHT22;8984;49.268;12.302;2024-03-08T14:21:40;12.80;99.90
17728;DHT22;8984;49.268;12.302;2024-03-08T14:24:10;12.80;99.90
17728;DHT22;8984;49.268;12.302;2024-03-08T14:26:37;12.80;99.90
17728;DHT22;8984;49.268;12.302;2024-03-08T14:29:04;12.70;99.90
17728;DHT22;8984;49.268;12.302;2024-03-08T14:31:31;12.90;99.90
17728;DHT22;8984;49.268;12.302;2024-03-08T14:33:57;12.60;99.90
17728;DHT22;8984;49.268;12.302;2024-03-08T14:36:24;12.60;99.90
17728;DHT22;8984;49.268;12.302;2024-03-08T14:38:52;12.40;99.90
17728;DHT22;8984;49.268;12.302;2024-03-08T14:41:20;12.40;99.90
17728;DHT22;8984;49.268;12.302;2024-03-08T14:43:47;12.40;99.90
17728;DHT22;8984;49.268;12.302;2024-03-08T14:46:14;12.30;99.90
17728;DHT22;8984;49.268;12.302;2024-03-08T14:48:43;12.10;99.90
17728;DHT22;8984;49.268;12.302;2024-03-08T14:51:10;12.00;99.90
17728;DHT22;8984;49.268;12.302;2024-03-08T14:53:40;12.00;99.90
17728;DHT22;8984;49.268;12.302;2024-03-08T14:56:08;12.10;99.90
17728;DHT22;8984;49.268;12.302;2024-03-08T14:58:36;12.10;99.90
17728;DHT22;8984;49.268;12.302;2024-03-08T15:01:04;12.00;99.90
17728;DHT22;8984;49.268;12.302;2024-03-08T15:03:37;12.00;99.90
17728;DHT22;8984;49.268;12.302;2024-03-08T15:06:32;11.90;99.90
17728;DHT22;8984;49.268;12.302;2024-03-08T15:09:13;11.90;99.90
17728;DHT22;8984;49.268;12.302;2024-03-08T15:11:59;11.80;99.90
17728;DHT22;8984;49.268;12.302;2024-03-08T15:14:29;11.70;99.90
17728;DHT22;8984;49.268;12.302;2024-03-08T15:17:01;11.60;99.90
17728;DHT22;8984;49.268;12.302;2024-03-08T15:19:39;11.60;99.90
17728;DHT22;8984;49.268;12.302;2024-03-08T15:22:32;11.40;99.90
17728;DHT22;8984;49.268;12.302;2024-03-08T15:25:10;11.40;99.90
17728;DHT22;8984;49.268;12.302;2024-03-08T15:27:47;11.50;99.90
17728;DHT22;8984;49.268;12.302;2024-03-08T15:30:21;11.50;99.90
17728;DHT22;8984;49.268;12.302;2024-03-08T15:32:52;11.40;99.90
17728;DHT22;8984;49.268;12.302;2024-03-08T15:35:24;11.10;99.90
17728;DHT22;8984;49.268;12.302;2024-03-08T15:37:55;11.00;99.90
17728;DHT22;8984;49.268;12.302;2024-03-08T15:40:31;11.00;99.90
17728;DHT22;8984;49.268;12.302;2024-03-08T15:43:02;10.90;99.90
17728;DHT22;8984;49.268;12.302;2024-03-08T15:45:48;10.60;99.90
17728;DHT22;8984;49.268;12.302;2024-03-08T15:48:17;10.60;99.90
17728;DHT22;8984;49.268;12.302;2024-03-08T15:50:48;10.60;99.90
17728;DHT22;8984;49.268;12.302;2024-03-08T15:53:16;10.80;99.90
17728;DHT22;8984;49.268;12.302;2024-03-08T15:55:48;10.70;99.90
17728;DHT22;8984;49.268;12.302;2024-03-08T15:58:17;10.70;99.90